Terminal Aerodrome Forecast
Issued by NWS

Home | Current Version | Previous Version | Text Only | Print | Product List | Glossary On
Versions: 1 2 3 4 5 6 7 8 9 10 11 12 13 14
868
FTUS45 KRIW 272057 AAA
TAFBPI
TAF AMD
KBPI 272057Z 2721/2818 24007KT P6SM VCSH SCT025 BKN050
      TEMPO 2721/2724 4SM -SN BR BKN030
     FM280200 28010KT P6SM VCSH BKN035
     FM280700 VRB06KT P6SM FEW030 SCT120=

USA.gov is the U.S. government's official web portal to all federal, state and local government web resources and services.